Time;durP1;ratioP1;P1;durP2;ratioP2;P2;SDS_P1;SDS_P2;PMS_P1;PMS_P2;Temp;Humidity;BMP_temperature;BMP_pressure;BME280_temperature;BME280_humidity;BME280_pressure;Samples;Min_cycle;Max_cycle;Signal;HPM_P1;HPM_P2
2021/04/18 00:00:57;;;;;;;8.00;4.10;;;5.30;99.90;;;;;;5014264;28;20054;-83
2021/04/18 00:03:24;;;;;;;4.38;3.65;;;5.30;99.90;;;;;;5014470;28;20471;-83
2021/04/18 00:05:51;;;;;;;8.93;4.05;;;5.30;99.90;;;;;;5015388;28;20063;-83
2021/04/18 00:08:17;;;;;;;8.95;4.05;;;5.40;99.90;;;;;;5014362;28;20046;-83
2021/04/18 00:10:44;;;;;;;4.63;3.75;;;5.30;99.90;;;;;;5014266;28;20139;-83
2021/04/18 00:13:13;;;;;;;6.95;4.40;;;5.20;99.90;;;;;;5014100;28;20068;-83
2021/04/18 00:15:43;;;;;;;7.45;4.40;;;5.20;99.90;;;;;;5015803;28;20050;-84
2021/04/18 00:18:11;;;;;;;5.50;4.20;;;5.10;99.90;;;;;;5014177;28;20141;-83
2021/04/18 00:20:38;;;;;;;10.20;4.60;;;5.00;99.90;;;;;;5015188;28;20053;-83
2021/04/18 00:23:05;;;;;;;9.55;5.20;;;5.00;99.90;;;;;;5015249;28;20089;-83
2021/04/18 00:25:31;;;;;;;7.10;4.80;;;4.90;99.90;;;;;;5014219;28;20096;-83
2021/04/18 00:27:58;;;;;;;8.50;5.35;;;4.80;99.90;;;;;;5013896;28;20129;-83
2021/04/18 00:30:24;;;;;;;7.38;4.80;;;4.80;99.90;;;;;;5013981;28;20060;-83
2021/04/18 00:32:59;;;;;;;6.78;5.10;;;4.80;99.90;;;;;;5014018;28;20450;-83
2021/04/18 00:35:26;;;;;;;6.80;5.55;;;4.90;99.90;;;;;;5013941;28;20046;-83
2021/04/18 00:37:53;;;;;;;9.80;5.38;;;4.90;99.90;;;;;;5013759;28;20054;-83
2021/04/18 00:40:21;;;;;;;8.43;5.22;;;4.90;99.90;;;;;;5013300;28;20077;-83
2021/04/18 00:42:48;;;;;;;8.88;4.90;;;4.90;99.90;;;;;;5013420;28;20128;-83
2021/04/18 00:45:16;;;;;;;8.23;5.70;;;4.90;99.90;;;;;;5014048;28;20057;-83
2021/04/18 00:47:44;;;;;;;12.18;5.75;;;4.80;99.90;;;;;;5013574;28;20103;-83
2021/04/18 00:50:13;;;;;;;7.43;5.10;;;4.80;99.90;;;;;;5013672;28;20129;-83
2021/04/18 00:52:40;;;;;;;7.88;5.38;;;4.80;99.90;;;;;;5014398;28;20046;-83
2021/04/18 00:55:10;;;;;;;7.45;5.20;;;4.80;99.90;;;;;;5013982;28;20104;-83
2021/04/18 00:57:36;;;;;;;6.38;5.25;;;4.80;99.90;;;;;;5014345;28;20046;-83
2021/04/18 01:00:07;;;;;;;11.77;5.55;;;4.90;99.90;;;;;;5014575;28;20153;-83
2021/04/18 01:02:34;;;;;;;11.45;6.00;;;4.80;99.90;;;;;;5013674;28;20446;-83
2021/04/18 01:05:00;;;;;;;7.75;5.80;;;4.80;99.90;;;;;;5013586;28;20108;-83
2021/04/18 01:07:27;;;;;;;12.73;7.13;;;4.90;99.90;;;;;;5012577;28;20108;-83
2021/04/18 01:09:54;;;;;;;11.27;7.13;;;4.80;99.90;;;;;;5012350;28;20061;-83
2021/04/18 01:12:21;;;;;;;9.25;6.03;;;4.80;99.90;;;;;;5012320;28;20046;-83
2021/04/18 01:14:47;;;;;;;10.48;6.28;;;4.80;99.90;;;;;;5012380;28;20112;-83
2021/04/18 01:17:13;;;;;;;9.68;5.93;;;4.80;99.90;;;;;;5011630;28;20082;-83
2021/04/18 01:19:40;;;;;;;9.95;6.60;;;4.80;99.90;;;;;;5013329;28;20050;-84
2021/04/18 01:22:07;;;;;;;9.77;5.90;;;4.90;99.90;;;;;;5013439;28;20074;-83
2021/04/18 01:24:33;;;;;;;9.93;6.35;;;4.90;99.90;;;;;;5012015;28;20469;-83
2021/04/18 01:27:00;;;;;;;9.68;5.45;;;4.90;99.90;;;;;;5012053;28;20506;-83
2021/04/18 01:29:26;;;;;;;8.40;5.65;;;4.90;99.90;;;;;;5012066;28;20478;-82
2021/04/18 01:31:52;;;;;;;9.32;5.30;;;4.90;99.90;;;;;;5011906;28;20054;-83
2021/04/18 01:34:18;;;;;;;7.80;5.82;;;4.80;99.90;;;;;;5013232;28;20054;-83
2021/04/18 01:36:45;;;;;;;10.25;5.75;;;4.80;99.90;;;;;;5012071;28;20049;-83
2021/04/18 01:39:15;;;;;;;12.32;5.70;;;4.80;99.90;;;;;;5011830;28;20049;-83
2021/04/18 01:41:44;;;;;;;8.95;6.22;;;4.80;99.90;;;;;;5012881;28;20056;-83
2021/04/18 01:44:12;;;;;;;8.38;5.53;;;4.80;99.90;;;;;;5011902;28;20116;-83
2021/04/18 01:46:40;;;;;;;11.13;5.78;;;4.90;99.90;;;;;;5012973;28;20057;-83
2021/04/18 01:49:06;;;;;;;12.80;5.78;;;4.80;99.90;;;;;;5012974;28;20511;-83
2021/04/18 01:51:33;;;;;;;9.38;5.53;;;4.90;99.90;;;;;;5012906;28;20136;-83
2021/04/18 01:54:00;;;;;;;9.25;5.50;;;4.80;99.90;;;;;;5011530;28;20137;-83
2021/04/18 01:56:27;;;;;;;6.35;5.50;;;4.80;99.90;;;;;;5011717;28;20052;-83
2021/04/18 01:58:53;;;;;;;12.98;6.47;;;4.80;99.90;;;;;;5012700;28;20050;-83
2021/04/18 02:01:20;;;;;;;8.30;5.50;;;4.80;99.90;;;;;;4993812;28;523870;-83
2021/04/18 02:03:47;;;;;;;8.00;5.97;;;4.90;99.90;;;;;;5011934;28;20486;-83
2021/04/18 02:06:15;;;;;;;8.60;5.78;;;4.90;99.90;;;;;;5013302;28;20054;-83
2021/04/18 02:08:42;;;;;;;10.05;6.60;;;4.80;99.90;;;;;;5012129;28;20203;-83
2021/04/18 02:11:08;;;;;;;13.75;6.20;;;4.80;99.90;;;;;;5013501;28;20112;-83
2021/04/18 02:13:34;;;;;;;8.23;5.63;;;4.80;99.90;;;;;;5011996;28;20145;-83
2021/04/18 02:16:01;;;;;;;11.02;5.93;;;4.90;99.90;;;;;;5013182;28;20469;-83
2021/04/18 02:18:28;;;;;;;9.73;5.72;;;4.90;99.90;;;;;;5013108;28;20053;-83
2021/04/18 02:20:54;;;;;;;7.88;5.47;;;4.90;99.90;;;;;;5012046;28;20096;-83
2021/04/18 02:23:20;;;;;;;10.68;6.03;;;5.00;99.90;;;;;;5012118;28;20050;-83
2021/04/18 02:25:47;;;;;;;8.70;5.60;;;4.90;99.90;;;;;;5012082;28;20042;-83
2021/04/18 02:28:13;;;;;;;11.65;6.10;;;4.90;99.90;;;;;;5011200;28;20499;-83
2021/04/18 02:30:39;;;;;;;8.13;5.45;;;4.90;99.90;;;;;;5011769;28;20136;-83
2021/04/18 02:33:06;;;;;;;11.48;5.68;;;4.90;99.90;;;;;;5012930;28;20056;-83
2021/04/18 02:35:33;;;;;;;8.65;6.10;;;4.80;99.90;;;;;;5012007;28;20045;-83
2021/04/18 02:37:59;;;;;;;8.93;6.43;;;4.80;99.90;;;;;;5012146;28;20144;-83
2021/04/18 02:40:25;;;;;;;9.65;6.60;;;4.80;99.90;;;;;;5011953;28;20576;-83
2021/04/18 02:42:52;;;;;;;11.77;6.20;;;4.80;99.90;;;;;;5013025;28;20141;-83
2021/04/18 02:45:18;;;;;;;9.82;6.25;;;4.90;99.90;;;;;;5012977;28;20132;-83
2021/04/18 02:47:45;;;;;;;13.75;6.18;;;4.90;99.90;;;;;;5011546;28;20136;-83
2021/04/18 02:50:11;;;;;;;11.50;7.40;;;4.70;99.90;;;;;;5011888;28;20518;-83
2021/04/18 02:52:38;;;;;;;13.30;7.07;;;4.60;99.90;;;;;;5012609;28;20502;-83
2021/04/18 02:55:05;;;;;;;10.77;6.15;;;4.60;99.90;;;;;;5012990;28;20061;-83
2021/04/18 02:57:33;;;;;;;13.55;7.18;;;4.60;99.90;;;;;;5011370;28;20092;-83
2021/04/18 03:00:00;;;;;;;11.25;6.07;;;4.80;99.90;;;;;;5012821;28;20107;-83
2021/04/18 03:02:26;;;;;;;9.68;6.53;;;4.80;99.90;;;;;;5012656;28;20088;-83
2021/04/18 03:04:53;;;;;;;10.98;6.13;;;4.70;99.90;;;;;;5011723;28;20102;-83
2021/04/18 03:07:19;;;;;;;11.95;6.57;;;4.70;99.90;;;;;;5011917;28;20079;-83
2021/04/18 03:09:45;;;;;;;7.90;6.30;;;4.70;99.90;;;;;;5012897;28;20133;-83
2021/04/18 03:12:12;;;;;;;8.18;5.95;;;4.80;99.90;;;;;;5011753;28;20168;-83
2021/04/18 03:14:38;;;;;;;9.48;5.90;;;4.90;99.90;;;;;;5011335;28;20060;-83
2021/04/18 03:17:04;;;;;;;8.00;6.32;;;4.90;99.90;;;;;;5012668;28;20100;-83
2021/04/18 03:19:31;;;;;;;11.43;6.07;;;4.90;99.90;;;;;;5011605;28;20061;-83
2021/04/18 03:21:57;;;;;;;11.15;5.95;;;4.80;99.90;;;;;;5012583;28;20096;-83
2021/04/18 03:24:23;;;;;;;11.45;7.10;;;4.80;99.90;;;;;;5012780;28;20045;-83
2021/04/18 03:26:51;;;;;;;8.88;6.28;;;4.70;99.90;;;;;;5012767;28;20144;-83
2021/04/18 03:29:17;;;;;;;11.73;7.32;;;4.60;99.90;;;;;;5011540;28;20050;-83
2021/04/18 03:31:43;;;;;;;9.27;6.22;;;4.70;99.90;;;;;;5011573;28;20137;-83
2021/04/18 03:34:10;;;;;;;11.52;6.60;;;4.80;99.90;;;;;;5011034;28;20136;-83
2021/04/18 03:36:36;;;;;;;15.30;6.82;;;4.90;99.90;;;;;;5011552;28;20541;-83
2021/04/18 03:39:04;;;;;;;8.63;6.22;;;4.90;99.90;;;;;;5011426;28;20080;-83
2021/04/18 03:41:30;;;;;;;9.40;6.55;;;4.80;99.90;;;;;;5014244;28;20129;-83
2021/04/18 03:43:56;;;;;;;11.07;6.82;;;4.70;99.90;;;;;;5014969;28;20209;-83
2021/04/18 03:46:23;;;;;;;15.85;6.70;;;4.80;99.90;;;;;;5014469;28;20128;-83
2021/04/18 03:48:49;;;;;;;8.65;6.22;;;4.90;99.90;;;;;;5014517;28;20061;-83
2021/04/18 03:51:16;;;;;;;10.90;6.88;;;4.90;99.90;;;;;;5015979;28;20125;-83
2021/04/18 03:53:42;;;;;;;8.13;6.18;;;4.90;99.90;;;;;;5014800;28;20046;-83
2021/04/18 03:56:08;;;;;;;11.00;6.72;;;5.00;99.90;;;;;;5015855;28;20505;-83
2021/04/18 03:58:35;;;;;;;7.68;6.07;;;5.00;99.90;;;;;;5014515;28;20084;-83
2021/04/18 04:01:01;;;;;;;7.10;5.60;;;4.90;99.90;;;;;;5014398;28;20410;-83
2021/04/18 04:03:28;;;;;;;14.20;6.35;;;4.90;99.90;;;;;;5014413;28;20049;-83
2021/04/18 04:05:54;;;;;;;8.60;6.32;;;5.00;99.90;;;;;;5015597;28;20053;-83
2021/04/18 04:08:20;;;;;;;11.50;6.40;;;5.00;99.90;;;;;;5014520;28;20093;-84
2021/04/18 04:10:46;;;;;;;9.13;5.95;;;5.00;99.90;;;;;;5014662;28;20434;-83
2021/04/18 04:13:13;;;;;;;8.55;5.45;;;5.00;99.90;;;;;;5014121;28;20467;-83
2021/04/18 04:15:39;;;;;;;11.25;5.60;;;5.00;99.90;;;;;;5014119;28;20096;-83
2021/04/18 04:18:06;;;;;;;10.90;6.72;;;5.00;99.90;;;;;;5014237;28;20060;-83
2021/04/18 04:20:33;;;;;;;10.85;6.45;;;4.90;99.90;;;;;;5014219;28;20057;-83
2021/04/18 04:22:59;;;;;;;10.77;6.75;;;4.90;99.90;;;;;;5014068;28;20054;-83
2021/04/18 04:25:28;;;;;;;8.90;6.50;;;5.00;99.90;;;;;;5014363;28;20057;-83
2021/04/18 04:27:55;;;;;;;10.38;6.68;;;5.00;99.90;;;;;;5013884;28;20056;-84
2021/04/18 04:30:23;;;;;;;11.93;6.30;;;5.10;99.90;;;;;;5014210;28;20054;-83
2021/04/18 04:32:49;;;;;;;9.75;5.68;;;5.10;99.90;;;;;;5013958;28;20053;-83
2021/04/18 04:35:15;;;;;;;12.68;6.43;;;5.10;99.90;;;;;;5015547;28;20054;-83
2021/04/18 04:37:46;;;;;;;11.50;6.45;;;5.10;99.90;;;;;;5014936;28;20057;-83
2021/04/18 04:40:13;;;;;;;12.93;5.78;;;5.00;99.90;;;;;;5015104;28;20086;-83
2021/04/18 04:42:39;;;;;;;10.65;5.82;;;5.10;99.90;;;;;;5014514;28;20092;-83
2021/04/18 04:45:06;;;;;;;9.95;4.93;;;5.10;99.90;;;;;;5013822;28;20092;-84
2021/04/18 04:47:32;;;;;;;10.57;4.88;;;5.10;99.90;;;;;;5013628;28;20088;-84
2021/04/18 04:49:59;;;;;;;7.85;4.75;;;5.10;99.90;;;;;;5013816;28;20057;-84
2021/04/18 04:52:25;;;;;;;7.10;5.20;;;5.10;99.90;;;;;;5013671;28;20142;-83
2021/04/18 04:54:52;;;;;;;10.57;5.65;;;5.20;99.90;;;;;;5014550;28;20565;-84
2021/04/18 04:57:18;;;;;;;8.15;5.47;;;5.20;99.90;;;;;;5013691;28;20497;-84
2021/04/18 04:59:44;;;;;;;8.02;4.65;;;5.20;99.90;;;;;;5014602;28;20054;-84
2021/04/18 05:02:11;;;;;;;10.63;5.15;;;5.20;99.90;;;;;;5013195;28;20088;-83
2021/04/18 05:04:37;;;;;;;5.85;4.70;;;5.20;99.90;;;;;;5014424;28;20077;-83
2021/04/18 05:07:04;;;;;;;8.27;5.40;;;5.20;99.90;;;;;;5013542;28;20056;-84
2021/04/18 05:09:30;;;;;;;7.43;5.15;;;5.20;99.90;;;;;;5013375;28;20050;-83
2021/04/18 05:11:57;;;;;;;7.80;5.63;;;5.20;99.90;;;;;;5013143;28;20387;-83
2021/04/18 05:14:23;;;;;;;9.85;5.00;;;5.30;99.90;;;;;;5013118;28;20513;-84
2021/04/18 05:16:49;;;;;;;10.15;5.45;;;5.30;99.90;;;;;;5007372;28;20403;-84
2021/04/18 05:19:15;;;;;;;7.40;5.25;;;5.30;99.90;;;;;;5010326;28;20057;-83
2021/04/18 05:21:42;;;;;;;8.52;4.28;;;5.30;99.90;;;;;;5014100;28;20042;-83
2021/04/18 05:24:08;;;;;;;6.85;4.75;;;5.30;99.90;;;;;;5012908;28;20137;-83
2021/04/18 05:26:35;;;;;;;5.80;4.80;;;5.40;99.90;;;;;;5013950;28;20540;-84
2021/04/18 05:29:01;;;;;;;6.38;4.13;;;5.40;99.90;;;;;;5013023;28;20050;-83
2021/04/18 05:31:27;;;;;;;7.07;4.45;;;5.50;99.90;;;;;;5012897;28;20046;-84
2021/04/18 05:33:54;;;;;;;6.05;4.63;;;5.60;99.90;;;;;;5012872;28;20085;-84
2021/04/18 05:36:20;;;;;;;9.40;5.72;;;5.70;99.90;;;;;;5011920;28;20430;-83
2021/04/18 05:38:46;;;;;;;7.05;4.43;;;5.80;99.90;;;;;;5003325;28;20133;-83
2021/04/18 05:41:13;;;;;;;9.13;6.13;;;5.90;99.90;;;;;;5001962;28;20129;-83
2021/04/18 05:43:39;;;;;;;15.52;8.93;;;6.00;99.90;;;;;;5003487;28;20410;-84
2021/04/18 05:46:06;;;;;;;9.85;5.47;;;6.00;99.90;;;;;;5007816;28;20049;-83
2021/04/18 05:48:32;;;;;;;6.75;4.70;;;6.10;99.90;;;;;;5012594;28;20061;-83
2021/04/18 05:50:59;;;;;;;4.85;4.05;;;6.20;99.90;;;;;;5012812;28;20053;-84
2021/04/18 05:53:25;;;;;;;7.47;4.20;;;6.30;99.90;;;;;;5012268;28;20582;-83
2021/04/18 05:55:51;;;;;;;5.43;4.45;;;6.30;99.90;;;;;;5012687;28;20116;-84
2021/04/18 05:58:18;;;;;;;5.93;4.50;;;6.50;99.90;;;;;;5013459;28;20056;-83
2021/04/18 06:00:44;;;;;;;7.30;4.60;;;6.60;99.90;;;;;;5013488;28;20133;-83
2021/04/18 06:03:10;;;;;;;6.80;4.55;;;6.70;99.90;;;;;;5012172;28;20486;-83
2021/04/18 06:05:37;;;;;;;8.45;4.50;;;6.90;99.90;;;;;;5012400;28;20491;-83
2021/04/18 06:08:05;;;;;;;5.38;4.32;;;6.90;99.90;;;;;;5013397;28;20419;-83
2021/04/18 06:10:31;;;;;;;9.05;4.68;;;7.10;99.90;;;;;;5012214;28;20073;-84
2021/04/18 06:12:57;;;;;;;36.58;21.90;;;7.20;99.90;;;;;;5013525;28;20136;-83
2021/04/18 06:15:24;;;;;;;6.95;6.13;;;7.20;99.90;;;;;;5045324;28;20129;-83
2021/04/18 06:17:51;;;;;;;7.63;5.85;;;7.20;99.90;;;;;;5013373;28;20046;-83
2021/04/18 06:20:17;;;;;;;8.52;4.65;;;7.40;99.90;;;;;;5012024;28;20061;-83
2021/04/18 06:22:43;;;;;;;8.20;4.30;;;7.50;99.90;;;;;;5013128;28;20487;-83
2021/04/18 06:25:11;;;;;;;13.05;4.68;;;7.60;99.90;;;;;;5012231;28;20085;-83
2021/04/18 06:27:37;;;;;;;9.13;4.30;;;7.70;99.90;;;;;;5012969;28;20131;-83
2021/04/18 06:30:05;;;;;;;7.20;4.65;;;7.80;99.90;;;;;;5010379;28;20092;-83
2021/04/18 06:32:31;;;;;;;10.85;5.25;;;8.00;99.90;;;;;;5011801;28;20471;-83
2021/04/18 06:35:01;;;;;;;7.00;4.30;;;8.10;99.90;;;;;;5012193;28;20057;-83
2021/04/18 06:37:27;;;;;;;9.05;4.70;;;8.10;99.90;;;;;;5011026;28;20050;-83
2021/04/18 06:39:54;;;;;;;9.48;4.68;;;8.10;99.90;;;;;;5011263;28;20050;-84
2021/04/18 06:42:22;;;;;;;5.15;4.38;;;8.00;99.90;;;;;;5012129;28;20057;-84
2021/04/18 06:44:50;;;;;;;8.57;4.65;;;7.90;99.90;;;;;;5011747;28;20137;-84
2021/04/18 06:47:16;;;;;;;9.93;4.70;;;7.80;99.90;;;;;;5011062;28;20172;-83
2021/04/18 06:49:43;;;;;;;7.07;4.60;;;7.70;99.90;;;;;;5011110;28;20073;-82
2021/04/18 06:52:12;;;;;;;7.65;4.63;;;7.70;99.90;;;;;;5011134;28;20061;-84
2021/04/18 06:54:39;;;;;;;18.23;5.28;;;7.60;99.90;;;;;;5010972;28;20474;-84
2021/04/18 06:57:05;;;;;;;16.73;6.82;;;7.40;99.90;;;;;;5012278;28;20479;-84
2021/04/18 06:59:36;;;;;;;13.20;5.85;;;7.10;99.90;;;;;;5012240;28;20092;-84
2021/04/18 07:02:03;;;;;;;10.73;5.60;;;6.80;99.90;;;;;;5012033;28;20137;-83
2021/04/18 07:04:33;;;;;;;13.77;6.18;;;6.60;99.90;;;;;;5012074;28;20585;-84
2021/04/18 07:06:59;;;;;;;8.27;5.68;;;6.40;99.90;;;;;;5011849;28;20081;-83
2021/04/18 07:09:26;;;;;;;10.30;7.10;;;6.30;99.90;;;;;;5011854;28;20056;-84
2021/04/18 07:11:59;;;;;;;9.95;5.85;;;6.40;99.90;;;;;;5012796;28;20073;-83
2021/04/18 07:14:35;;;;;;;7.55;6.43;;;6.40;99.90;;;;;;5011646;28;20062;-84
2021/04/18 07:17:07;;;;;;;10.82;6.72;;;6.40;99.90;;;;;;5016422;28;20406;-83
2021/04/18 07:19:36;;;;;;;10.93;6.40;;;6.50;99.90;;;;;;5015456;28;20053;-83
2021/04/18 07:22:03;;;;;;;10.68;6.68;;;6.50;99.90;;;;;;5015516;28;20050;-83
2021/04/18 07:24:30;;;;;;;9.15;6.47;;;6.60;99.90;;;;;;5015351;28;20046;-83
2021/04/18 07:27:03;;;;;;;10.82;7.07;;;6.70;99.90;;;;;;5016024;28;20050;-83
2021/04/18 07:29:31;;;;;;;17.47;9.53;;;6.90;99.90;;;;;;5015429;28;20107;-83
2021/04/18 07:31:59;;;;;;;21.17;10.85;;;7.10;99.90;;;;;;5015110;28;20088;-84
2021/04/18 07:34:36;;;;;;;13.98;10.43;;;7.30;99.90;;;;;;5048087;28;20054;-83
2021/04/18 07:37:13;;;;;;;19.23;10.45;;;7.20;99.90;;;;;;5016791;28;20076;-84
2021/04/18 07:39:52;;;;;;;13.85;8.75;;;7.30;99.90;;;;;;5047952;28;20148;-83
2021/04/18 07:42:40;;;;;;;12.13;8.73;;;7.20;99.90;;;;;;5002578;28;20089;-84
2021/04/18 07:45:12;;;;;;;13.43;9.15;;;7.10;99.90;;;;;;5035449;28;20049;-82
2021/04/18 07:47:41;;;;;;;18.97;11.53;;;7.20;99.90;;;;;;5011471;28;20050;-83
2021/04/18 07:50:11;;;;;;;25.50;13.93;;;7.10;99.90;;;;;;4994417;28;20073;-84
2021/04/18 07:52:44;;;;;;;17.27;10.63;;;7.20;99.90;;;;;;4995962;28;20553;-84
2021/04/18 07:55:11;;;;;;;;;;;7.40;99.90;;;;;;4995670;28;20061;-84
2021/04/18 07:57:38;;;;;;;14.23;8.68;;;7.70;99.90;;;;;;4995062;28;20021;-83
2021/04/18 08:00:07;;;;;;;13.95;7.07;;;8.30;99.90;;;;;;5010094;28;20108;-83
2021/04/18 08:02:34;;;;;;;11.73;7.00;;;9.00;99.90;;;;;;4993895;28;20530;-83
2021/04/18 08:05:01;;;;;;;12.80;6.97;;;9.40;99.90;;;;;;4994264;28;20104;-83
2021/04/18 08:07:28;;;;;;;10.80;7.05;;;10.10;99.90;;;;;;5009050;28;20050;-83
2021/04/18 08:10:22;;;;;;;10.10;7.70;;;10.60;99.90;;;;;;5009153;28;20141;-83
2021/04/18 08:13:02;;;;;;;;;;;11.00;99.90;;;;;;4993039;28;20043;-84
2021/04/18 08:15:29;;;;;;;13.27;8.02;;;11.80;99.90;;;;;;5010957;28;19972;-84
2021/04/18 08:18:13;;;;;;;15.35;8.40;;;12.60;99.90;;;;;;4995687;28;20060;-83
2021/04/18 08:20:46;;;;;;;10.55;7.50;;;12.50;99.90;;;;;;5006586;28;20749;-84
2021/04/18 08:23:16;;;;;;;22.23;9.85;;;13.00;99.90;;;;;;4995677;28;20092;-83
2021/04/18 08:26:04;;;;;;;22.27;9.18;;;13.40;99.90;;;;;;4995412;28;20630;-83
2021/04/18 08:31:23;;;;;;;14.02;9.48;;;13.50;99.90;;;;;;4995495;28;20046;-83
2021/04/18 08:33:56;;;;;;;14.50;10.13;;;13.00;99.90;;;;;;5010335;28;20050;-82
2021/04/18 08:36:25;;;;;;;14.60;10.32;;;12.60;99.90;;;;;;4994152;28;20488;-83
2021/04/18 08:39:00;;;;;;;14.52;10.13;;;12.40;99.90;;;;;;5010555;28;20089;-84
2021/04/18 08:41:48;;;;;;;14.88;10.10;;;12.40;99.90;;;;;;4995664;28;20054;-84
2021/04/18 08:44:24;;;;;;;10.98;9.10;;;12.40;99.90;;;;;;4988687;28;20149;-83
2021/04/18 08:46:52;;;;;;;13.65;9.70;;;12.90;99.90;;;;;;4995567;28;20154;-83
2021/04/18 08:49:29;;;;;;;19.05;9.85;;;13.00;99.90;;;;;;4994378;28;20558;-83
2021/04/18 08:51:57;;;;;;;20.20;9.85;;;12.70;99.90;;;;;;4995461;28;20149;-83
2021/04/18 08:54:24;;;;;;;16.88;11.07;;;12.90;99.90;;;;;;4995182;28;20078;-83
2021/04/18 08:56:54;;;;;;;18.67;12.23;;;13.40;99.90;;;;;;4993611;28;20104;-83
2021/04/18 08:59:21;;;;;;;21.27;15.70;;;13.30;99.90;;;;;;4995206;28;20384;-83
2021/04/18 09:01:59;;;;;;;16.85;12.60;;;13.70;99.90;;;;;;5009814;28;20157;-84
2021/04/18 09:04:28;;;;;;;19.92;13.10;;;14.30;99.90;;;;;;5009911;28;20057;-84
2021/04/18 09:06:55;;;;;;;16.15;12.23;;;13.80;99.90;;;;;;5010062;28;20150;-84
2021/04/18 09:09:21;;;;;;;18.10;13.25;;;13.80;99.90;;;;;;5009897;28;20486;-83
2021/04/18 09:11:48;;;;;;;18.95;13.02;;;13.70;99.90;;;;;;5009905;28;20050;-83
2021/04/18 09:14:25;;;;;;;16.40;12.43;;;13.40;99.90;;;;;;5009940;28;20129;-84
2021/04/18 09:16:51;;;;;;;16.00;12.18;;;13.70;99.90;;;;;;5009875;28;20133;-84
2021/04/18 09:19:18;;;;;;;19.80;12.70;;;13.90;99.90;;;;;;5009737;28;20077;-84
2021/04/18 09:21:53;;;;;;;17.30;12.48;;;14.00;99.90;;;;;;4994451;28;20133;-84
2021/04/18 09:24:20;;;;;;;16.70;11.52;;;14.10;99.90;;;;;;5009774;28;20058;-84
2021/04/18 09:27:01;;;;;;;17.80;11.77;;;14.60;99.90;;;;;;5009447;28;20388;-84
2021/04/18 09:29:28;;;;;;;15.98;10.85;;;14.70;99.90;;;;;;5005487;28;20088;-83
2021/04/18 09:32:07;;;;;;;22.95;11.27;;;14.60;99.90;;;;;;5009331;28;20472;-83
2021/04/18 09:34:35;;;;;;;18.00;12.10;;;14.50;99.90;;;;;;4993017;28;20104;-84
2021/04/18 09:37:06;;;;;;;16.48;11.63;;;14.60;99.90;;;;;;4993043;28;20048;-84
2021/04/18 09:39:33;;;;;;;20.52;12.90;;;15.10;99.90;;;;;;5009085;28;20109;-84
2021/04/18 09:42:01;;;;;;;15.45;11.80;;;15.00;99.90;;;;;;5009635;28;20058;-83
2021/04/18 09:44:40;;;;;;;16.05;11.07;;;14.50;99.90;;;;;;5008702;28;20097;-84
2021/04/18 09:47:15;;;;;;;16.60;10.70;;;14.50;99.90;;;;;;5009242;28;20149;-83
2021/04/18 09:49:47;;;;;;;13.48;11.32;;;15.10;99.90;;;;;;5009276;28;20057;-83
2021/04/18 09:52:31;;;;;;;14.70;11.35;;;15.00;99.90;;;;;;4993882;28;20053;-83
2021/04/18 09:55:12;;;;;;;18.83;13.40;;;13.90;99.90;;;;;;5009141;28;20100;-84
2021/04/18 09:57:46;;;;;;;17.38;12.75;;;12.90;99.90;;;;;;4992833;28;20050;-83
2021/04/18 10:00:15;;;;;;;17.52;12.35;;;12.50;99.90;;;;;;5009031;28;20057;-83
2021/04/18 10:02:56;;;;;;;18.38;13.63;;;12.80;99.90;;;;;;4993805;28;20086;-84
2021/04/18 10:05:23;;;;;;;23.80;14.93;;;12.20;99.90;;;;;;4993872;28;20042;-83
2021/04/18 10:07:50;;;;;;;21.10;13.30;;;11.60;99.90;;;;;;5008695;28;20492;-83
2021/04/18 10:10:32;;;;;;;26.27;15.23;;;11.70;99.90;;;;;;5008950;28;20133;-84
2021/04/18 10:13:00;;;;;;;19.30;12.38;;;11.40;99.90;;;;;;4993681;28;20141;-83
2021/04/18 10:15:27;;;;;;;20.45;13.73;;;11.70;99.90;;;;;;4992644;28;20128;-83
2021/04/18 10:17:53;;;;;;;15.75;12.20;;;12.00;99.90;;;;;;5008810;28;20047;-83
2021/04/18 10:20:27;;;;;;;18.85;13.05;;;12.20;99.90;;;;;;4993570;28;20055;-85
2021/04/18 10:23:02;;;;;;;;;;;12.40;99.90;;;;;;4994113;28;20594;-84
2021/04/18 10:25:28;;;;;;;17.63;11.80;;;12.30;99.90;;;;;;4993558;28;19965;-84
2021/04/18 10:27:55;;;;;;;16.38;12.57;;;12.50;99.90;;;;;;5008982;28;20082;-84
2021/04/18 10:30:22;;;;;;;20.38;12.90;;;12.10;99.90;;;;;;4992474;28;20137;-84
2021/04/18 10:32:48;;;;;;;17.90;12.57;;;12.30;99.90;;;;;;4993533;28;20156;-84
2021/04/18 10:35:15;;;;;;;17.98;12.18;;;12.40;99.90;;;;;;4993588;28;20129;-83
2021/04/18 10:37:42;;;;;;;15.45;11.05;;;12.90;99.90;;;;;;4993376;28;20495;-84
2021/04/18 10:40:09;;;;;;;20.30;11.80;;;14.80;99.90;;;;;;5008404;28;20084;-83
2021/04/18 10:42:35;;;;;;;19.00;16.27;;;14.90;99.90;;;;;;4993343;28;20149;-84
2021/04/18 10:45:02;;;;;;;14.68;11.55;;;14.60;99.90;;;;;;4993457;28;20050;-83
2021/04/18 10:47:28;;;;;;;14.07;11.02;;;13.80;99.90;;;;;;4993359;28;20129;-83
2021/04/18 10:49:55;;;;;;;18.98;13.38;;;14.40;99.90;;;;;;5009167;28;20475;-84
2021/04/18 10:52:21;;;;;;;26.33;21.33;;;14.90;99.90;;;;;;4997411;28;20133;-83
2021/04/18 10:54:48;;;;;;;16.27;10.98;;;15.10;99.90;;;;;;4997190;28;20129;-83
2021/04/18 10:57:14;;;;;;;23.80;16.60;;;15.60;99.90;;;;;;5012584;28;20112;-83
2021/04/18 10:59:40;;;;;;;22.70;15.13;;;15.20;99.90;;;;;;4997154;28;20126;-83
2021/04/18 11:02:07;;;;;;;51.78;31.88;;;14.30;99.90;;;;;;4996799;28;20140;-83
2021/04/18 11:04:34;;;;;;;71.70;51.78;;;13.90;99.90;;;;;;5012027;28;20050;-83
2021/04/18 11:07:02;;;;;;;17.23;12.82;;;13.60;99.90;;;;;;4996940;28;20483;-83
2021/04/18 11:09:29;;;;;;;17.13;13.57;;;13.60;99.90;;;;;;4997055;28;20097;-83
2021/04/18 11:11:55;;;;;;;17.77;13.98;;;14.00;99.90;;;;;;4996949;28;20414;-82
2021/04/18 11:14:22;;;;;;;19.98;15.82;;;14.00;99.90;;;;;;5011920;28;20458;-83
2021/04/18 11:16:49;;;;;;;20.52;14.07;;;13.60;99.90;;;;;;4995867;28;20137;-84
2021/04/18 11:19:15;;;;;;;19.17;13.60;;;13.50;99.90;;;;;;4995786;28;20061;-83
2021/04/18 11:21:42;;;;;;;18.90;14.35;;;13.10;99.90;;;;;;5011773;28;20082;-84
2021/04/18 11:24:09;;;;;;;22.33;14.60;;;12.60;99.90;;;;;;5011875;28;20086;-83
2021/04/18 11:26:35;;;;;;;18.75;13.90;;;11.90;99.90;;;;;;4996662;28;20129;-83
2021/04/18 11:29:02;;;;;;;22.98;15.77;;;11.80;99.90;;;;;;5011650;28;20053;-83
2021/04/18 11:31:28;;;;;;;19.88;14.60;;;11.50;99.90;;;;;;5011911;28;20086;-84
2021/04/18 11:33:55;;;;;;;25.20;14.77;;;11.30;99.90;;;;;;5011709;28;20121;-83
2021/04/18 11:36:21;;;;;;;27.23;15.25;;;11.00;99.90;;;;;;4996370;28;20050;-84
2021/04/18 11:38:48;;;;;;;22.05;14.10;;;11.00;99.90;;;;;;4996598;28;20406;-84
2021/04/18 11:41:32;;;;;;;26.33;15.32;;;10.80;99.90;;;;;;5009639;28;20046;-83
2021/04/18 11:44:00;;;;;;;22.42;13.52;;;11.00;99.90;;;;;;4996644;28;20116;-84
2021/04/18 11:46:31;;;;;;;21.92;15.48;;;10.90;99.90;;;;;;4995301;28;20087;-84
2021/04/18 11:48:59;;;;;;;21.50;15.60;;;10.80;99.90;;;;;;4998527;28;20046;-84
2021/04/18 11:51:25;;;;;;;22.40;15.55;;;10.50;99.90;;;;;;5004637;28;20141;-84
2021/04/18 11:53:52;;;;;;;25.88;16.00;;;10.60;99.90;;;;;;5004451;28;20058;-83
2021/04/18 11:56:18;;;;;;;20.33;15.30;;;10.90;99.90;;;;;;5037864;28;20490;-84
2021/04/18 11:58:45;;;;;;;23.30;14.57;;;11.40;99.90;;;;;;5005988;28;20050;-84
2021/04/18 12:01:11;;;;;;;26.08;16.20;;;12.10;99.90;;;;;;5004340;28;20054;-84
2021/04/18 12:03:37;;;;;;;22.50;16.40;;;12.30;99.90;;;;;;5035495;28;20129;-84
2021/04/18 12:06:05;;;;;;;22.63;16.13;;;12.40;99.90;;;;;;5002336;28;20561;-83
2021/04/18 12:08:32;;;;;;;25.60;17.50;;;12.10;99.90;;;;;;5015732;28;20049;-84
2021/04/18 12:10:59;;;;;;;25.60;17.02;;;11.70;99.90;;;;;;5015735;28;20099;-83
2021/04/18 12:13:25;;;;;;;29.00;18.30;;;11.60;99.90;;;;;;5047236;28;20132;-83
2021/04/18 12:15:51;;;;;;;52.13;34.90;;;11.40;99.90;;;;;;5014188;28;20506;-84
2021/04/18 12:18:17;;;;;;;29.83;18.95;;;11.30;99.90;;;;;;5046957;28;20073;-83
2021/04/18 12:20:44;;;;;;;25.95;17.88;;;11.50;99.90;;;;;;5015141;28;20045;-84
2021/04/18 12:23:10;;;;;;;27.77;18.95;;;11.60;99.90;;;;;;5014079;28;20669;-84
2021/04/18 12:25:36;;;;;;;29.15;18.98;;;11.60;99.90;;;;;;5015138;28;20109;-83
2021/04/18 12:28:03;;;;;;;40.63;19.77;;;11.70;99.90;;;;;;5015345;28;20045;-83
2021/04/18 12:30:29;;;;;;;26.25;18.70;;;11.70;99.90;;;;;;5014995;28;20074;-83
2021/04/18 12:32:56;;;;;;;30.85;19.20;;;11.90;99.90;;;;;;5015134;28;20054;-83
2021/04/18 12:35:22;;;;;;;30.88;19.90;;;11.90;99.90;;;;;;5046954;28;20434;-83
2021/04/18 12:37:48;;;;;;;27.13;19.33;;;11.90;99.90;;;;;;5014780;28;20449;-84
2021/04/18 12:40:14;;;;;;;38.88;22.55;;;11.80;99.90;;;;;;5015059;28;20140;-83
2021/04/18 12:42:41;;;;;;;30.90;20.33;;;11.20;99.90;;;;;;5014645;28;20136;-83
2021/04/18 12:45:08;;;;;;;33.90;20.80;;;11.30;99.90;;;;;;5013816;28;20056;-82
2021/04/18 12:47:34;;;;;;;36.72;21.88;;;11.30;99.90;;;;;;5046821;28;20058;-83
2021/04/18 12:50:01;;;;;;;39.78;23.20;;;11.20;99.90;;;;;;5013553;28;20383;-83